aviador You're here:

KEKX Decoded Metar

ELIZABETH in KY, USA
Report Time2017-07-21 08:35:00
UTC Time2017-07-21 08:38:21
Flight Rules vfr VFR
WindCalm
Visibility9999 m
Phenomena:N/A
Clouds:N/A
CeilingNone
Temp23°C (ISA +9)
Dew Point23°C (100% RH)
QNH1017 hPa
Density Alt2,096 ft
Elevation755 ft
Report Wrong Elevation
Raw Report
KEKX 210835Z AUTO 00000KT 10SM CLR 23/23 A3002 RMK AO2
T02330232=

Extra information for KEKX:More info

Airport Information Weather charts Add Link Nearby Venues Social comments

AIRNAV info for KEKX